Shuya — V2QR4 — position and weather

sailwx.info

Track history (hours):
 
Tides and Currents Weather Stations Pressure Air Temp Water Temp Dewpoint Dewpoint Depression Visibility Wind Speed Wind Dir Waves Ship Positions

Shuya

Last reported at 2017-Sep-19 16:09 UTC. Time now 2017-Sep-20 00:27 UTC.
Position N 50°04' W 003°54'.

Length 96 m; draft 5.3 m.

Type: Cargo ship. MMSI: 304958000.

Date/timePositionNaut miles runAvg speedWind from/ knotsBaromVisibWave heightAir tempDewpointWater temp
2017-Sep-19 16:09N 50°04' W 003°54'4 7.7
2017-Sep-19 15:39N 50°04' W 003°48'1 7.9
2017-Sep-19 15:30N 50°05' W 003°46'4 8.3
2017-Sep-19 15:00N 50°05' W 003°40'5 9.1
2017-Sep-19 14:30N 50°06' W 003°33'5 9.7
2017-Sep-19 14:00N 50°07' W 003°25'510.2
2017-Sep-19 13:30N 50°08' W 003°18'510.5
2017-Sep-19 13:00N 50°09' W 003°10'510.8
2017-Sep-19 12:30N 50°10' W 003°02'116 8.8
2017-Sep-18 23:20N 50°32' W 000°03'3 9.6
2017-Sep-18 23:00N 50°33' E 000°02'15 8.5
2017-Sep-18 21:15N 50°37' E 000°25'3 7.6
2017-Sep-18 20:50N 50°38' E 000°30'2 7.2
2017-Sep-18 20:30N 50°38' E 000°33'4 7.4
2017-Sep-18 19:57N 50°41' E 000°38'5 7.6
2017-Sep-18 19:20N 50°43' E 000°45'3 7.9
2017-Sep-18 19:00N 50°45' E 000°48'3210.0
2017-Sep-18 15:49N 51°04' E 001°28'3 9.6
2017-Sep-18 15:30N 51°06' E 001°32'4 9.0
2017-Sep-18 15:00N 51°08' E 001°38'4 8.3
2017-Sep-18 14:30N 51°11' E 001°43'4 7.9
2017-Sep-18 14:00N 51°14' E 001°47'4 7.5
2017-Sep-18 13:30N 51°17' E 001°49'4 7.0
2017-Sep-18 13:00N 51°21' E 001°51'3 6.8
2017-Sep-18 12:30N 51°24' E 001°54'3 6.7
2017-Sep-18 12:00N 51°26' E 001°57'4 7.1
2017-Sep-18 11:29N 51°29' E 002°00'271 7.2
2017-Sep-16 21:54N 54°00' E 008°13'3 8.5
2017-Sep-16 21:30N 54°00' E 008°18'5 9.5
2017-Sep-16 21:00N 53°59' E 008°26'4 8.7
2017-Sep-16 20:30N 53°58' E 008°34'4 7.7
2017-Sep-16 20:00N 53°57' E 008°39'4 7.1
2017-Sep-16 19:30N 53°53' E 008°42'3 6.4
2017-Sep-16 19:00N 53°51' E 008°46'3 6.0
2017-Sep-16 18:30N 53°51' E 008°51'3 6.7
2017-Sep-16 18:00N 53°51' E 008°57'4 7.3
2017-Sep-16 17:31N 53°52' E 009°02'4 7.8
2017-Sep-16 17:00N 53°54' E 009°09'0 0.3
2017-Sep-16 16:30N 53°54' E 009°09'3 5.8
2017-Sep-16 16:00N 53°56' E 009°12'4 8.7
2017-Sep-16 15:30N 53°59' E 009°17'90 6.3
2017-Sep-16 01:17N 54°27' E 011°43'2 8.1
2017-Sep-16 01:00N 54°27' E 011°47'12 8.3
2017-Sep-15 23:32N 54°27' E 012°08'0 8.2
2017-Sep-15 23:30N 54°27' E 012°08'4 7.7
2017-Sep-15 23:00N 54°31' E 012°11'4 8.2
2017-Sep-15 22:30N 54°35' E 012°13'4 8.0
2017-Sep-15 22:00N 54°38' E 012°17'4 8.1
2017-Sep-15 21:31N 54°40' E 012°23'63 8.1
2017-Sep-15 13:40N 55°05' E 014°04'12 7.7
2017-Sep-15 12:07N 55°14' E 014°18'3 8.5
2017-Sep-15 11:48N 55°16' E 014°20'5 8.4
2017-Sep-15 11:13N 55°20' E 014°26'2 8.3
2017-Sep-15 10:59N 55°22' E 014°28'13 8.1
2017-Sep-15 09:19N 55°31' E 014°45'21 8.4
2017-Sep-15 06:50N 55°42' E 015°16'3 8.4
2017-Sep-15 06:30N 55°44' E 015°20'  
Track history (hours):
 
Tides and Currents Weather Stations Pressure Air Temp Water Temp Dewpoint Dewpoint Depression Visibility Wind Speed Wind Dir Waves Ship Positions

Shuya

Last reported at 2017-Sep-19 16:09 UTC. Time now 2017-Sep-20 00:27 UTC.
Position N 50°04' W 003°54'.

Length 96 m; draft 5.3 m.

Type: Cargo ship. MMSI: 304958000.

Date/timePositionNaut miles runAvg speedWind from/ knotsBaromVisibWave heightAir tempDewpointWater temp
2017-Sep-19 16:09N 50°04' W 003°54'4 7.7
2017-Sep-19 15:39N 50°04' W 003°48'1 7.9
2017-Sep-19 15:30N 50°05' W 003°46'4 8.3
2017-Sep-19 15:00N 50°05' W 003°40'5 9.1
2017-Sep-19 14:30N 50°06' W 003°33'5 9.7
2017-Sep-19 14:00N 50°07' W 003°25'510.2
2017-Sep-19 13:30N 50°08' W 003°18'510.5
2017-Sep-19 13:00N 50°09' W 003°10'510.8
2017-Sep-19 12:30N 50°10' W 003°02'116 8.8
2017-Sep-18 23:20N 50°32' W 000°03'3 9.6
2017-Sep-18 23:00N 50°33' E 000°02'15 8.5
2017-Sep-18 21:15N 50°37' E 000°25'3 7.6
2017-Sep-18 20:50N 50°38' E 000°30'2 7.2
2017-Sep-18 20:30N 50°38' E 000°33'4 7.4
2017-Sep-18 19:57N 50°41' E 000°38'5 7.6
2017-Sep-18 19:20N 50°43' E 000°45'3 7.9
2017-Sep-18 19:00N 50°45' E 000°48'3210.0
2017-Sep-18 15:49N 51°04' E 001°28'3 9.6
2017-Sep-18 15:30N 51°06' E 001°32'4 9.0
2017-Sep-18 15:00N 51°08' E 001°38'4 8.3
2017-Sep-18 14:30N 51°11' E 001°43'4 7.9
2017-Sep-18 14:00N 51°14' E 001°47'4 7.5
2017-Sep-18 13:30N 51°17' E 001°49'4 7.0
2017-Sep-18 13:00N 51°21' E 001°51'3 6.8
2017-Sep-18 12:30N 51°24' E 001°54'3 6.7
2017-Sep-18 12:00N 51°26' E 001°57'4 7.1
2017-Sep-18 11:29N 51°29' E 002°00'271 7.2
2017-Sep-16 21:54N 54°00' E 008°13'3 8.5
2017-Sep-16 21:30N 54°00' E 008°18'5 9.5
2017-Sep-16 21:00N 53°59' E 008°26'4 8.7
2017-Sep-16 20:30N 53°58' E 008°34'4 7.7
2017-Sep-16 20:00N 53°57' E 008°39'4 7.1
2017-Sep-16 19:30N 53°53' E 008°42'3 6.4
2017-Sep-16 19:00N 53°51' E 008°46'3 6.0
2017-Sep-16 18:30N 53°51' E 008°51'3 6.7
2017-Sep-16 18:00N 53°51' E 008°57'4 7.3
2017-Sep-16 17:31N 53°52' E 009°02'4 7.8
2017-Sep-16 17:00N 53°54' E 009°09'0 0.3
2017-Sep-16 16:30N 53°54' E 009°09'3 5.8
2017-Sep-16 16:00N 53°56' E 009°12'4 8.7
2017-Sep-16 15:30N 53°59' E 009°17'90 6.3
2017-Sep-16 01:17N 54°27' E 011°43'2 8.1
2017-Sep-16 01:00N 54°27' E 011°47'12 8.3
2017-Sep-15 23:32N 54°27' E 012°08'0 8.2
2017-Sep-15 23:30N 54°27' E 012°08'4 7.7
2017-Sep-15 23:00N 54°31' E 012°11'4 8.2
2017-Sep-15 22:30N 54°35' E 012°13'4 8.0
2017-Sep-15 22:00N 54°38' E 012°17'4 8.1
2017-Sep-15 21:31N 54°40' E 012°23'63 8.1
2017-Sep-15 13:40N 55°05' E 014°04'12 7.7
2017-Sep-15 12:07N 55°14' E 014°18'3 8.5
2017-Sep-15 11:48N 55°16' E 014°20'5 8.4
2017-Sep-15 11:13N 55°20' E 014°26'2 8.3
2017-Sep-15 10:59N 55°22' E 014°28'13 8.1
2017-Sep-15 09:19N 55°31' E 014°45'21 8.4
2017-Sep-15 06:50N 55°42' E 015°16'3 8.4
2017-Sep-15 06:30N 55°44' E 015°20'  

Dump ship's entire track history